createdAt,value
2023-08-07T00:02:35.837Z,97611.91
2023-08-07T00:07:37.675Z,97609.93
2023-08-07T00:12:39.733Z,97610.52
2023-08-07T00:17:42.236Z,97609.08
2023-08-07T00:22:44.033Z,97602.17
2023-08-07T00:27:45.849Z,97601.84
2023-08-07T00:32:49.122Z,97604.55
2023-08-07T00:37:51.126Z,97613.16
2023-08-07T00:42:53.001Z,97612.55
2023-08-07T00:47:55.043Z,97603.59
2023-08-07T00:52:57.496Z,97595.45
2023-08-07T00:58:00.645Z,97597.56
2023-08-07T01:03:02.887Z,97595.27
2023-08-07T01:08:05.489Z,97595.20
2023-08-07T01:13:25.920Z,97602.16
2023-08-07T01:18:28.352Z,97600.12
2023-08-07T01:23:30.387Z,97599.75
2023-08-07T01:28:39.510Z,97605.28
2023-08-07T01:33:52.070Z,97599.46
2023-08-07T01:38:57.230Z,97605.73
2023-08-07T01:43:59.594Z,97602.10
2023-08-07T01:49:01.404Z,97607.29
2023-08-07T01:54:03.258Z,97613.72
2023-08-07T01:59:05.327Z,97613.20
2023-08-07T02:04:07.194Z,97614.71
2023-08-07T02:09:09.010Z,97610.61
2023-08-07T02:14:10.907Z,97611.81
2023-08-07T02:19:12.874Z,97609.34
2023-08-07T02:24:14.858Z,97610.20
2023-08-07T02:29:16.698Z,97610.48
2023-08-07T02:34:18.492Z,97612.78
2023-08-07T02:39:20.380Z,97614.70
2023-08-07T02:44:22.458Z,97612.07
2023-08-07T02:49:25.241Z,97608.56
2023-08-07T02:54:28.318Z,97609.95
2023-08-07T02:59:30.168Z,97612.85
2023-08-07T03:04:31.997Z,97617.91
2023-08-07T03:09:33.898Z,97624.09
2023-08-07T03:14:36.009Z,97628.85
2023-08-07T03:19:37.902Z,97625.02
2023-08-07T03:24:40.093Z,97621.70
2023-08-07T03:29:43.828Z,97626.40
2023-08-07T03:34:48.237Z,97635.94
2023-08-07T03:39:51.560Z,97640.48
2023-08-07T03:44:54.457Z,97643.88
2023-08-07T03:49:56.412Z,97645.31
2023-08-07T03:54:58.361Z,97646.98
2023-08-07T04:00:00.652Z,97644.79
2023-08-07T04:05:05.161Z,97648.67
2023-08-07T04:10:07.213Z,97648.80
2023-08-07T04:15:11.204Z,97647.32
2023-08-07T04:20:13.302Z,97650.82
2023-08-07T04:25:15.305Z,97660.80
2023-08-07T04:30:17.486Z,97660.48
2023-08-07T04:35:19.777Z,97657.90
2023-08-07T04:40:21.570Z,97656.19
2023-08-07T04:45:23.555Z,97658.78
2023-08-07T04:50:25.422Z,97654.69
2023-08-07T04:55:27.257Z,97654.26
2023-08-07T05:00:29.277Z,97653.63
2023-08-07T05:05:31.159Z,97660.80
2023-08-07T05:10:33.013Z,97664.84
2023-08-07T05:15:34.847Z,97667.59
2023-08-07T05:20:36.693Z,97672.61
2023-08-07T05:25:38.957Z,97678.77
2023-08-07T05:30:42.408Z,97676.89
2023-08-07T05:35:44.411Z,97673.48
2023-08-07T05:40:46.291Z,97676.56
2023-08-07T05:45:50.269Z,97675.80
2023-08-07T05:50:52.806Z,97678.63
2023-08-07T05:55:54.824Z,97684.03
2023-08-07T06:00:56.770Z,97683.59
2023-08-07T06:05:58.627Z,97686.63
2023-08-07T06:11:04.432Z,97694.74
2023-08-07T06:16:07.336Z,97708.31
2023-08-07T06:21:11.832Z,97711.36
2023-08-07T06:26:14.239Z,97708.50
2023-08-07T06:31:17.797Z,97712.86
2023-08-07T06:36:19.638Z,97713.90
2023-08-07T06:41:21.616Z,97715.94
2023-08-07T06:46:27.951Z,97717.65
2023-08-07T06:51:29.869Z,97714.39
2023-08-07T06:56:31.660Z,97722.56
2023-08-07T07:01:33.653Z,97728.50
2023-08-07T07:06:35.645Z,97732.13
2023-08-07T07:11:37.576Z,97735.31
2023-08-07T07:16:39.628Z,97740.92
2023-08-07T07:21:42.838Z,97747.17
2023-08-07T07:26:44.679Z,97752.95
2023-08-07T07:31:46.534Z,97759.67
2023-08-07T07:36:48.686Z,97760.95
2023-08-07T07:41:50.544Z,97768.23
2023-08-07T07:46:52.512Z,97770.61
2023-08-07T07:51:54.291Z,97774.44
2023-08-07T07:56:56.426Z,97780.92
2023-08-07T08:01:58.947Z,97787.71
2023-08-07T08:07:01.095Z,97788.44
2023-08-07T08:12:02.891Z,97790.09
2023-08-07T08:17:05.667Z,97794.39
2023-08-07T08:22:07.509Z,97797.41
2023-08-07T08:27:09.322Z,97799.60
2023-08-07T08:32:11.725Z,97806.66
2023-08-07T08:37:13.690Z,97811.09
2023-08-07T08:42:16.254Z,97812.64
2023-08-07T08:47:18.266Z,97815.19
2023-08-07T08:52:20.629Z,97823.09
2023-08-07T08:57:23.034Z,97821.41
2023-08-07T09:02:24.905Z,97825.99
2023-08-07T09:07:28.222Z,97832.09
2023-08-07T09:12:33.285Z,97833.27
2023-08-07T09:17:41.453Z,97838.98
2023-08-07T09:22:43.469Z,97842.10
2023-08-07T09:27:45.459Z,97843.48
2023-08-07T09:32:49.075Z,97847.30
2023-08-07T09:37:52.083Z,97850.48
2023-08-07T09:42:54.709Z,97852.06
2023-08-07T09:48:04.385Z,97853.52
2023-08-07T09:53:06.488Z,97859.45
2023-08-07T09:58:13.380Z,97864.84
2023-08-07T10:03:16.562Z,97875.31
2023-08-07T10:08:19.564Z,97905.14
2023-08-07T10:13:28.162Z,97924.46
2023-08-07T10:18:30.684Z,97930.64
2023-08-07T10:23:36.256Z,97930.33
2023-08-07T10:28:41.786Z,97935.94
2023-08-07T10:33:44.339Z,97936.88
2023-08-07T10:38:49.980Z,97940.98
2023-08-07T10:43:51.785Z,97937.58
2023-08-07T10:49:00.782Z,97938.84
2023-08-07T10:54:03.109Z,97935.73
2023-08-07T10:59:12.657Z,97941.10
2023-08-07T11:04:16.400Z,97944.92
2023-08-07T11:09:18.213Z,97947.36
2023-08-07T11:14:20.932Z,97948.42
2023-08-07T11:19:23.977Z,97950.94
2023-08-07T11:24:28.697Z,97943.69
2023-08-07T11:29:32.113Z,97953.71
2023-08-07T11:34:34.014Z,97953.52
2023-08-07T11:39:43.283Z,97960.55
2023-08-07T11:44:46.272Z,97961.54
2023-08-07T11:49:49.094Z,97966.44
2023-08-07T11:54:50.914Z,97969.39
2023-08-07T11:59:53.121Z,97968.52
2023-08-07T12:04:59.869Z,97977.00
2023-08-07T12:10:05.343Z,97982.68
2023-08-07T12:15:10.868Z,97981.46
2023-08-07T12:20:12.857Z,97983.46
2023-08-07T12:25:14.832Z,97993.27
2023-08-07T12:30:16.876Z,97992.88
2023-08-07T12:35:18.644Z,97998.19
2023-08-07T12:50:31.678Z,98016.11
2023-08-07T12:55:33.886Z,98016.32
2023-08-07T13:00:45.765Z,98021.89
2023-08-07T13:05:47.796Z,98033.37
2023-08-07T13:10:50.591Z,98038.42
2023-08-07T13:15:55.353Z,98045.17
2023-08-07T13:20:57.994Z,98039.16
2023-08-07T13:25:59.790Z,98032.10
2023-08-07T13:31:01.692Z,98035.73
2023-08-07T13:36:03.776Z,98042.80
2023-08-07T13:41:05.783Z,98038.87
2023-08-07T13:46:07.712Z,98044.89
2023-08-07T13:51:09.655Z,98052.60
2023-08-07T13:56:15.059Z,98055.77
2023-08-07T14:01:17.023Z,98055.53
2023-08-07T14:06:19.039Z,98056.80
2023-08-07T14:11:21.439Z,98059.15
2023-08-07T14:16:23.508Z,98061.06
2023-08-07T14:21:26.183Z,98062.84
2023-08-07T14:26:27.995Z,98062.59
2023-08-07T14:31:29.855Z,98072.30
2023-08-07T14:36:31.841Z,98075.98
2023-08-07T14:41:33.706Z,98074.83
2023-08-07T14:46:35.595Z,98079.92
2023-08-07T14:51:37.735Z,98096.94
2023-08-07T14:56:39.763Z,98105.68
2023-08-07T15:01:41.827Z,98106.69
2023-08-07T15:06:43.789Z,98108.66
2023-08-07T15:11:46.148Z,98105.70
2023-08-07T15:16:47.956Z,98105.85
2023-08-07T15:21:52.297Z,98114.06
2023-08-07T15:26:54.126Z,98107.35
2023-08-07T15:31:56.283Z,98112.05
2023-08-07T15:36:59.651Z,98107.36
2023-08-07T15:42:01.919Z,98116.83
2023-08-07T15:47:04.321Z,98128.41
2023-08-07T15:52:06.584Z,98135.08
2023-08-07T15:57:08.616Z,98139.67
2023-08-07T16:02:10.653Z,98141.07
2023-08-07T16:07:12.680Z,98147.18
2023-08-07T16:12:14.567Z,98147.16
2023-08-07T16:17:17.051Z,98151.02
2023-08-07T16:22:18.933Z,98154.95
2023-08-07T16:27:20.888Z,98161.77
2023-08-07T16:32:22.790Z,98168.00
2023-08-07T16:37:24.635Z,98174.98
2023-08-07T16:42:26.853Z,98186.41
2023-08-07T16:47:28.753Z,98183.63
2023-08-07T16:52:30.828Z,98183.80
2023-08-07T16:57:32.801Z,98187.15
2023-08-07T17:02:34.671Z,98186.85
2023-08-07T17:07:36.628Z,98186.73
2023-08-07T17:12:38.604Z,98191.44
2023-08-07T17:17:40.519Z,98198.27
2023-08-07T17:22:42.567Z,98199.61
2023-08-07T17:27:44.396Z,98196.91
2023-08-07T17:32:46.246Z,98201.20
2023-08-07T17:37:48.363Z,98209.42
2023-08-07T17:42:50.291Z,98218.92
2023-08-07T17:47:52.207Z,98220.65
2023-08-07T17:52:55.256Z,98221.34
2023-08-07T17:57:57.492Z,98223.16
2023-08-07T18:02:59.660Z,98221.13
2023-08-07T18:08:01.462Z,98221.84
2023-08-07T18:13:03.543Z,98226.69
2023-08-07T18:18:05.801Z,98234.94
2023-08-07T18:23:07.823Z,98238.96
2023-08-07T18:28:10.156Z,98246.13
2023-08-07T18:33:12.142Z,98254.23
2023-08-07T18:38:14.092Z,98257.44
2023-08-07T18:43:15.925Z,98258.54
2023-08-07T18:48:17.829Z,98263.40
2023-08-07T18:53:20.489Z,98266.52
2023-08-07T18:58:23.408Z,98281.85
2023-08-07T19:03:26.097Z,98288.77
2023-08-07T19:08:28.013Z,98293.30
2023-08-07T19:13:30.434Z,98295.43
2023-08-07T19:18:32.355Z,98301.14
2023-08-07T19:23:34.272Z,98311.23
2023-08-07T19:28:36.067Z,98317.71
2023-08-07T19:33:40.041Z,98322.14
2023-08-07T19:38:41.972Z,98329.95
2023-08-07T19:43:45.264Z,98335.84
2023-08-07T19:48:47.728Z,98341.55
2023-08-07T19:54:01.449Z,98345.15
2023-08-07T19:59:05.677Z,98347.98
2023-08-07T20:04:08.147Z,98358.58
2023-08-07T20:09:13.374Z,98365.56
2023-08-07T20:14:15.181Z,98366.98
2023-08-07T20:19:16.965Z,98371.30
2023-08-07T20:24:18.913Z,98373.37
2023-08-07T20:29:20.821Z,98375.48
2023-08-07T20:34:22.655Z,98380.05
2023-08-07T20:39:25.381Z,98386.25
2023-08-07T20:44:27.493Z,98383.52
2023-08-07T20:49:29.555Z,98385.60
2023-08-07T20:54:31.855Z,98388.77
2023-08-07T20:59:33.683Z,98394.88
2023-08-07T21:04:35.694Z,98399.08
2023-08-07T21:09:40.239Z,98405.11
2023-08-07T21:14:42.047Z,98409.45
2023-08-07T21:19:43.881Z,98412.27
2023-08-07T21:24:45.894Z,98413.67
2023-08-07T21:29:47.883Z,98411.46
2023-08-07T21:34:49.753Z,98419.73
2023-08-07T21:39:51.553Z,98420.96
2023-08-07T21:44:55.149Z,98427.39
2023-08-07T21:49:57.080Z,98425.86
2023-08-07T21:54:58.869Z,98431.35
2023-08-07T22:00:00.774Z,98429.42
2023-08-07T22:05:03.986Z,98440.62
2023-08-07T22:10:06.781Z,98444.96
2023-08-07T22:15:09.937Z,98450.02
2023-08-07T22:20:13.754Z,98453.14
2023-08-07T22:25:15.772Z,98460.02
2023-08-07T22:30:17.794Z,98462.27
2023-08-07T22:35:20.083Z,98468.88
2023-08-07T22:40:22.158Z,98475.11
2023-08-07T22:45:24.077Z,98478.42
2023-08-07T22:50:26.054Z,98484.13
2023-08-07T22:55:27.982Z,98491.27
2023-08-07T23:00:32.546Z,98497.39
2023-08-07T23:05:36.854Z,98501.58
2023-08-07T23:10:38.739Z,98504.34
2023-08-07T23:15:41.702Z,98507.60
2023-08-07T23:20:43.623Z,98508.15
2023-08-07T23:25:45.528Z,98506.45
2023-08-07T23:30:47.348Z,98512.48
2023-08-07T23:35:49.307Z,98524.85
2023-08-07T23:40:51.390Z,98530.39
2023-08-07T23:45:53.407Z,98530.30
2023-08-07T23:50:55.535Z,98535.54
2023-08-07T23:55:57.418Z,98539.52
